Weather at Toulouse-Blagnac Airport

Public forecast

Using degrees Celsius for public forecast. Weather courtesy of forecast.io.

Current aviation weather report (METAR) for Toulouse-Blagnac Airport

2024/07/14 18:00 (retrieved 11 minutes ago)

LFBO 141800Z AUTO 36011KT CAVOK 30/16 Q1011 NOSIG

Aviation forecast (TAF) for Toulouse-Blagnac Airport

2024/07/14 18:42 (retrieved 0 seconds ago)

TAF TAF LFBO 141700Z 1418/1524 36007KT CAVOK BECMG 1422/1424 13005KT BECMG 1503/1505 14011KT BECMG 1510/1512 30008KT PROB40 TEMPO 1515/1519 30018G30KT 4000 SHRA SCT050CB BKN060 PROB30 TEMPO 1515/1518 -TSRA BECMG 1519/1521 BKN045